createdAt,value
2018-02-18T00:47:30.232Z,77.80
2018-02-18T00:50:24.958Z,77.10
2018-02-18T00:53:08.251Z,76.90
2018-02-18T00:59:03.069Z,77.10
2018-02-18T01:05:04.192Z,77.60
2018-02-18T01:07:50.900Z,77.90
2018-02-18T01:10:32.382Z,77.70
2018-02-18T01:13:10.985Z,79.30
2018-02-18T01:15:52.302Z,79.10
2018-02-18T01:18:38.625Z,78.20
2018-02-18T01:21:19.352Z,77.40
2018-02-18T01:23:58.475Z,77.10
2018-02-18T01:26:41.098Z,77.50
2018-02-18T01:29:49.464Z,77.70
2018-02-18T01:32:23.532Z,77.80
2018-02-18T01:35:02.697Z,76.80
2018-02-18T01:37:45.340Z,77.40
2018-02-18T01:40:26.204Z,77.50
2018-02-18T01:43:09.334Z,78.30
2018-02-18T01:58:13.489Z,78.00
2018-02-18T02:00:57.259Z,78.00
2018-02-18T02:03:35.222Z,79.00
2018-02-18T02:09:01.732Z,79.50
2018-02-18T02:11:48.691Z,78.70
2018-02-18T02:17:48.866Z,78.90
2018-02-18T02:20:30.921Z,79.80
2018-02-18T02:23:10.544Z,79.70
2018-02-18T02:41:03.553Z,79.50
2018-02-18T02:43:39.850Z,79.60
2018-02-18T02:46:28.193Z,79.20
2018-02-18T02:49:06.968Z,79.60
2018-02-18T02:51:47.199Z,79.50
2018-02-18T02:54:22.192Z,79.20
2018-02-18T02:57:00.159Z,79.10
2018-02-18T02:59:41.768Z,79.00
2018-02-18T03:02:22.779Z,78.60
2018-02-18T03:07:52.638Z,78.40
2018-02-18T03:10:32.758Z,78.40
2018-02-18T03:13:18.730Z,78.50
2018-02-18T03:18:52.180Z,78.20
2018-02-18T03:21:32.191Z,78.10
2018-02-18T03:24:08.691Z,78.00
2018-02-18T03:39:29.077Z,77.20
2018-02-18T03:42:04.594Z,78.20
2018-02-18T03:44:54.937Z,78.90
2018-02-18T03:47:33.377Z,78.50
2018-02-18T03:50:09.146Z,78.10
2018-02-18T03:52:53.773Z,77.50
2018-02-18T03:55:37.494Z,77.40
2018-02-18T03:58:10.542Z,77.70
2018-02-18T04:00:50.396Z,77.80
2018-02-18T04:03:39.012Z,77.60
2018-02-18T04:06:19.951Z,77.50
2018-02-18T04:14:35.442Z,77.70
2018-02-18T04:17:07.934Z,77.50
2018-02-18T04:19:48.165Z,77.80
2018-02-18T04:22:24.176Z,78.10
2018-02-18T04:25:11.805Z,78.20
2018-02-18T04:28:13.284Z,77.90
2018-02-18T04:30:53.709Z,77.70
2018-02-18T04:33:34.364Z,78.00
2018-02-18T04:36:22.139Z,77.70
2018-02-18T04:39:12.765Z,77.90
2018-02-18T04:41:49.035Z,77.50
2018-02-18T04:44:32.855Z,77.60
2018-02-18T04:47:10.299Z,77.60
2018-02-18T04:49:50.604Z,77.80
2018-02-18T04:52:32.267Z,77.50
2018-02-18T04:55:22.577Z,77.80
2018-02-18T04:57:59.421Z,78.00
2018-02-18T05:00:34.997Z,78.30
2018-02-18T05:03:13.576Z,78.40
2018-02-18T05:05:49.850Z,77.40
2018-02-18T05:08:34.866Z,77.80
2018-02-18T05:11:15.163Z,75.80
2018-02-18T05:13:50.039Z,75.80
2018-02-18T05:16:30.279Z,75.90
2018-02-18T05:19:21.134Z,75.90
2018-02-18T05:22:01.195Z,75.70
2018-02-18T05:27:44.010Z,75.10
2018-02-18T05:30:25.314Z,75.60
2018-02-18T05:33:07.394Z,75.60
2018-02-18T05:36:05.253Z,75.00
2018-02-18T05:38:43.764Z,75.30
2018-02-18T05:41:40.144Z,75.30
2018-02-18T05:44:45.083Z,74.60
2018-02-18T05:47:30.356Z,75.00
2018-02-18T05:50:14.983Z,74.90
2018-02-18T05:55:42.046Z,76.50
2018-02-18T05:58:25.463Z,75.30
2018-02-18T06:01:06.623Z,75.30
2018-02-18T06:03:58.467Z,74.40
2018-02-18T06:09:47.847Z,74.50
2018-02-18T06:12:40.056Z,74.40
2018-02-18T06:15:16.318Z,74.60
2018-02-18T06:17:55.065Z,74.60
2018-02-18T06:21:06.283Z,75.50
2018-02-18T06:23:57.711Z,74.30
2018-02-18T06:26:42.991Z,74.20
2018-02-18T06:29:40.171Z,72.70
2018-02-18T06:32:41.169Z,72.70
2018-02-18T06:35:44.501Z,73.30
2018-02-18T06:41:38.659Z,74.50
2018-02-18T06:44:19.436Z,74.70
2018-02-18T06:47:13.719Z,75.00
2018-02-18T06:50:17.110Z,75.80
2018-02-18T06:53:06.326Z,74.90
2018-02-18T06:56:05.068Z,75.10
2018-02-18T06:58:54.252Z,75.10
2018-02-18T07:01:43.915Z,74.90
2018-02-18T07:07:28.415Z,75.00
2018-02-18T07:13:16.568Z,74.80
2018-02-18T07:16:05.866Z,74.20
2018-02-18T07:18:55.308Z,74.20
2018-02-18T07:21:42.409Z,73.80
2018-02-18T07:24:33.929Z,73.70
2018-02-18T07:38:24.719Z,73.30
2018-02-18T07:41:28.509Z,72.90
2018-02-18T07:47:44.248Z,72.80
2018-02-18T07:54:13.043Z,72.50
2018-02-18T07:56:57.282Z,72.20
2018-02-18T07:59:40.545Z,72.30
2018-02-18T08:15:06.637Z,67.50
2018-02-18T08:28:09.801Z,53.60
2018-02-18T08:33:07.798Z,52.00
2018-02-18T08:36:03.288Z,50.80
2018-02-18T08:38:57.929Z,50.60
2018-02-18T08:41:58.604Z,50.00
2018-02-18T08:44:56.902Z,48.70
2018-02-18T08:47:49.996Z,47.80
2018-02-18T08:51:58.457Z,47.80
2018-02-18T08:54:52.463Z,47.10
2018-02-18T09:03:56.883Z,46.10
2018-02-18T09:09:39.313Z,45.50
2018-02-18T09:12:30.925Z,44.90
2018-02-18T09:15:27.350Z,44.80
2018-02-18T09:27:08.994Z,44.00
2018-02-18T09:30:02.697Z,45.20
2018-02-18T09:32:53.686Z,46.10
2018-02-18T09:35:39.186Z,45.10
2018-02-18T09:44:42.338Z,45.40
2018-02-18T09:50:26.009Z,44.20
2018-02-18T09:53:25.343Z,45.00
2018-02-18T09:56:15.503Z,45.60
2018-02-18T09:59:22.128Z,45.80
2018-02-18T10:02:18.596Z,46.00
2018-02-18T10:06:46.422Z,46.40
2018-02-18T10:09:52.527Z,47.00
2018-02-18T10:12:36.908Z,47.00
2018-02-18T10:21:05.474Z,48.00
2018-02-18T10:23:52.202Z,48.00
2018-02-18T10:26:38.886Z,47.20
2018-02-18T10:29:21.587Z,46.90
2018-02-18T10:32:08.341Z,46.30
2018-02-18T10:34:56.441Z,46.30
2018-02-18T10:37:43.919Z,45.70
2018-02-18T10:40:35.378Z,45.70
2018-02-18T10:43:23.163Z,45.80
2018-02-18T10:46:05.520Z,45.80
2018-02-18T10:48:41.188Z,46.00
2018-02-18T10:51:28.359Z,45.80
2018-02-18T10:54:21.895Z,45.80
2018-02-18T10:56:57.368Z,45.90
2018-02-18T11:02:32.696Z,44.80
2018-02-18T11:08:55.729Z,44.30
2018-02-18T11:11:44.348Z,45.10
2018-02-18T11:34:15.130Z,44.20
2018-02-18T11:37:11.193Z,44.40
2018-02-18T11:40:03.310Z,43.50
2018-02-18T11:42:53.287Z,43.50
2018-02-18T11:45:37.511Z,43.60
2018-02-18T11:48:22.661Z,44.10
2018-02-18T11:51:15.222Z,43.90
2018-02-18T11:53:59.425Z,43.70
2018-02-18T11:56:48.052Z,43.60
2018-02-18T11:59:31.993Z,43.80
2018-02-18T12:02:08.202Z,44.70
2018-02-18T12:09:03.622Z,44.80
2018-02-18T12:12:02.763Z,44.20
2018-02-18T12:14:47.087Z,44.20
2018-02-18T12:17:34.816Z,44.20
2018-02-18T12:20:16.520Z,44.50
2018-02-18T12:22:58.579Z,43.90
2018-02-18T12:25:42.949Z,44.30
2018-02-18T12:28:25.340Z,44.60
2018-02-18T12:30:58.903Z,44.50
2018-02-18T12:33:47.101Z,44.90
2018-02-18T12:36:31.827Z,44.30
2018-02-18T12:45:38.815Z,44.30
2018-02-18T12:48:20.418Z,44.60
2018-02-18T12:59:48.324Z,45.00
2018-02-18T13:14:12.795Z,45.00
2018-02-18T13:17:21.168Z,45.00
2018-02-18T13:20:04.501Z,45.70
2018-02-18T13:22:56.731Z,47.00
2018-02-18T13:35:07.770Z,46.70
2018-02-18T14:05:16.242Z,48.10
2018-02-18T14:11:03.081Z,48.20
2018-02-18T14:13:54.793Z,48.20
2018-02-18T14:16:50.017Z,47.80
2018-02-18T14:22:32.025Z,49.60
2018-02-18T14:28:19.558Z,50.10
2018-02-18T14:31:44.387Z,49.50
2018-02-18T14:34:38.262Z,49.20
2018-02-18T14:37:30.281Z,49.90
2018-02-18T14:40:14.285Z,50.20
2018-02-18T14:46:12.273Z,49.30
2018-02-18T14:54:21.826Z,49.20
2018-02-18T14:57:22.696Z,50.90
2018-02-18T15:00:22.075Z,50.50
2018-02-18T15:03:26.502Z,50.50
2018-02-18T15:06:23.981Z,49.20
2018-02-18T15:12:23.792Z,49.20
2018-02-18T15:19:38.381Z,49.20
2018-02-18T15:22:26.914Z,49.40
2018-02-18T15:25:29.785Z,48.80
2018-02-18T15:28:14.675Z,48.80
2018-02-18T15:31:07.014Z,48.90
2018-02-18T15:33:57.010Z,49.00
2018-02-18T15:36:52.701Z,50.30
2018-02-18T15:39:33.470Z,50.50
2018-02-18T16:03:09.610Z,50.30
